sensor_id;sensor_type;location;lat;lon;timestamp;P1;durP1;ratioP1;P2;durP2;ratioP2
38190;SDS011;25191;47.510;19.124;2022-11-15T00:09:34;9.55;;;6.47;;
38190;SDS011;25191;47.510;19.124;2022-11-15T00:19:34;7.68;;;5.95;;
38190;SDS011;25191;47.510;19.124;2022-11-15T00:39:58;7.87;;;6.30;;
38190;SDS011;25191;47.510;19.124;2022-11-15T00:49:58;9.32;;;5.75;;
38190;SDS011;25191;47.510;19.124;2022-11-15T00:59:59;8.63;;;6.38;;
38190;SDS011;25191;47.510;19.124;2022-11-15T01:09:59;7.40;;;5.88;;
38190;SDS011;25191;47.510;19.124;2022-11-15T01:19:59;6.68;;;5.50;;
38190;SDS011;25191;47.510;19.124;2022-11-15T01:30:00;6.93;;;5.43;;
38190;SDS011;25191;47.510;19.124;2022-11-15T01:40:01;8.63;;;5.32;;
38190;SDS011;25191;47.510;19.124;2022-11-15T01:50:06;6.28;;;5.22;;
38190;SDS011;25191;47.510;19.124;2022-11-15T02:00:10;7.28;;;5.47;;
38190;SDS011;25191;47.510;19.124;2022-11-15T02:10:12;7.07;;;5.60;;
38190;SDS011;25191;47.510;19.124;2022-11-15T02:20:34;6.65;;;5.35;;
38190;SDS011;25191;47.510;19.124;2022-11-15T02:51:42;6.35;;;5.18;;
38190;SDS011;25191;47.510;19.124;2022-11-15T03:01:50;6.68;;;5.00;;
38190;SDS011;25191;47.510;19.124;2022-11-15T03:12:07;5.88;;;4.70;;
38190;SDS011;25191;47.510;19.124;2022-11-15T03:22:16;5.80;;;4.70;;
38190;SDS011;25191;47.510;19.124;2022-11-15T03:32:21;4.90;;;4.38;;
38190;SDS011;25191;47.510;19.124;2022-11-15T03:42:27;5.32;;;4.75;;
38190;SDS011;25191;47.510;19.124;2022-11-15T03:52:33;4.90;;;4.40;;
38190;SDS011;25191;47.510;19.124;2022-11-15T04:02:34;5.77;;;4.57;;
38190;SDS011;25191;47.510;19.124;2022-11-15T04:12:36;5.22;;;4.47;;
38190;SDS011;25191;47.510;19.124;2022-11-15T04:22:39;5.45;;;4.70;;
38190;SDS011;25191;47.510;19.124;2022-11-15T04:32:58;5.97;;;4.45;;
38190;SDS011;25191;47.510;19.124;2022-11-15T04:42:58;5.03;;;4.38;;
38190;SDS011;25191;47.510;19.124;2022-11-15T04:52:58;5.22;;;4.40;;
38190;SDS011;25191;47.510;19.124;2022-11-15T05:02:59;6.00;;;4.50;;
38190;SDS011;25191;47.510;19.124;2022-11-15T05:13:18;7.53;;;4.70;;
38190;SDS011;25191;47.510;19.124;2022-11-15T05:23:18;5.28;;;4.53;;
38190;SDS011;25191;47.510;19.124;2022-11-15T05:33:19;12.57;;;4.80;;
38190;SDS011;25191;47.510;19.124;2022-11-15T05:43:19;12.07;;;4.40;;
38190;SDS011;25191;47.510;19.124;2022-11-15T05:53:20;9.95;;;4.10;;
38190;SDS011;25191;47.510;19.124;2022-11-15T06:03:23;10.48;;;4.22;;
38190;SDS011;25191;47.510;19.124;2022-11-15T06:13:23;12.02;;;6.25;;
38190;SDS011;25191;47.510;19.124;2022-11-15T06:23:23;10.93;;;5.22;;
38190;SDS011;25191;47.510;19.124;2022-11-15T06:33:24;9.85;;;4.60;;
38190;SDS011;25191;47.510;19.124;2022-11-15T06:43:25;8.65;;;4.57;;
38190;SDS011;25191;47.510;19.124;2022-11-15T06:53:25;6.03;;;4.43;;
38190;SDS011;25191;47.510;19.124;2022-11-15T07:03:27;6.25;;;4.63;;
38190;SDS011;25191;47.510;19.124;2022-11-15T07:13:27;5.32;;;4.40;;
38190;SDS011;25191;47.510;19.124;2022-11-15T07:23:29;5.57;;;4.03;;
38190;SDS011;25191;47.510;19.124;2022-11-15T07:33:30;6.25;;;4.30;;
38190;SDS011;25191;47.510;19.124;2022-11-15T07:43:30;8.07;;;4.87;;
38190;SDS011;25191;47.510;19.124;2022-11-15T08:03:33;8.98;;;4.47;;
38190;SDS011;25191;47.510;19.124;2022-11-15T08:13:34;7.90;;;4.45;;
38190;SDS011;25191;47.510;19.124;2022-11-15T08:23:35;9.98;;;4.63;;
38190;SDS011;25191;47.510;19.124;2022-11-15T08:33:36;10.68;;;4.65;;
38190;SDS011;25191;47.510;19.124;2022-11-15T08:43:37;8.85;;;4.93;;
38190;SDS011;25191;47.510;19.124;2022-11-15T08:53:37;7.97;;;4.78;;
38190;SDS011;25191;47.510;19.124;2022-11-15T09:03:39;6.47;;;4.60;;
38190;SDS011;25191;47.510;19.124;2022-11-15T09:13:40;7.45;;;5.07;;
38190;SDS011;25191;47.510;19.124;2022-11-15T09:23:41;8.43;;;5.40;;
38190;SDS011;25191;47.510;19.124;2022-11-15T09:33:44;8.30;;;4.53;;
38190;SDS011;25191;47.510;19.124;2022-11-15T09:44:02;9.50;;;5.50;;
38190;SDS011;25191;47.510;19.124;2022-11-15T09:54:15;7.57;;;5.50;;
38190;SDS011;25191;47.510;19.124;2022-11-15T10:04:22;9.38;;;5.78;;
38190;SDS011;25191;47.510;19.124;2022-11-15T10:14:26;8.07;;;5.68;;
38190;SDS011;25191;47.510;19.124;2022-11-15T10:24:32;8.30;;;6.13;;
38190;SDS011;25191;47.510;19.124;2022-11-15T10:34:35;11.00;;;6.28;;
38190;SDS011;25191;47.510;19.124;2022-11-15T10:44:41;7.80;;;6.05;;
38190;SDS011;25191;47.510;19.124;2022-11-15T10:54:47;8.57;;;6.65;;
38190;SDS011;25191;47.510;19.124;2022-11-15T11:04:51;9.55;;;6.80;;
38190;SDS011;25191;47.510;19.124;2022-11-15T11:14:52;9.63;;;6.45;;
38190;SDS011;25191;47.510;19.124;2022-11-15T11:46:12;8.90;;;6.82;;
38190;SDS011;25191;47.510;19.124;2022-11-15T11:56:14;8.23;;;6.63;;
38190;SDS011;25191;47.510;19.124;2022-11-15T12:06:30;11.95;;;6.68;;
38190;SDS011;25191;47.510;19.124;2022-11-15T12:16:35;9.70;;;6.50;;
38190;SDS011;25191;47.510;19.124;2022-11-15T12:26:41;8.23;;;6.30;;
38190;SDS011;25191;47.510;19.124;2022-11-15T12:36:49;10.15;;;6.53;;
38190;SDS011;25191;47.510;19.124;2022-11-15T13:07:04;8.93;;;6.72;;
38190;SDS011;25191;47.510;19.124;2022-11-15T13:27:17;12.07;;;7.68;;
38190;SDS011;25191;47.510;19.124;2022-11-15T13:47:20;9.35;;;7.45;;
38190;SDS011;25191;47.510;19.124;2022-11-15T13:57:24;12.50;;;8.68;;
38190;SDS011;25191;47.510;19.124;2022-11-15T14:07:28;12.07;;;7.95;;
38190;SDS011;25191;47.510;19.124;2022-11-15T14:27:30;11.57;;;8.02;;
38190;SDS011;25191;47.510;19.124;2022-11-15T14:37:32;13.77;;;7.75;;
38190;SDS011;25191;47.510;19.124;2022-11-15T14:47:34;10.73;;;7.90;;
38190;SDS011;25191;47.510;19.124;2022-11-15T14:57:36;11.27;;;7.80;;
38190;SDS011;25191;47.510;19.124;2022-11-15T15:07:43;9.70;;;7.20;;
38190;SDS011;25191;47.510;19.124;2022-11-15T15:17:43;9.73;;;7.32;;
38190;SDS011;25191;47.510;19.124;2022-11-15T15:27:43;9.18;;;7.05;;
38190;SDS011;25191;47.510;19.124;2022-11-15T15:37:44;16.13;;;7.70;;
38190;SDS011;25191;47.510;19.124;2022-11-15T15:47:46;13.35;;;7.80;;
38190;SDS011;25191;47.510;19.124;2022-11-15T15:57:49;8.68;;;7.30;;
38190;SDS011;25191;47.510;19.124;2022-11-15T16:07:49;8.73;;;7.35;;
38190;SDS011;25191;47.510;19.124;2022-11-15T16:17:54;13.02;;;7.25;;
38190;SDS011;25191;47.510;19.124;2022-11-15T16:27:56;12.18;;;7.80;;
38190;SDS011;25191;47.510;19.124;2022-11-15T16:37:56;9.40;;;7.07;;
38190;SDS011;25191;47.510;19.124;2022-11-15T16:47:57;9.18;;;6.85;;
38190;SDS011;25191;47.510;19.124;2022-11-15T16:57:57;9.43;;;7.20;;
38190;SDS011;25191;47.510;19.124;2022-11-15T17:07:58;9.35;;;6.82;;
38190;SDS011;25191;47.510;19.124;2022-11-15T17:17:58;8.45;;;6.60;;
38190;SDS011;25191;47.510;19.124;2022-11-15T17:27:59;13.70;;;7.30;;
38190;SDS011;25191;47.510;19.124;2022-11-15T17:38:00;9.98;;;7.65;;
38190;SDS011;25191;47.510;19.124;2022-11-15T17:48:00;11.38;;;7.90;;
38190;SDS011;25191;47.510;19.124;2022-11-15T17:58:00;16.40;;;8.07;;
38190;SDS011;25191;47.510;19.124;2022-11-15T18:08:01;13.60;;;7.97;;
38190;SDS011;25191;47.510;19.124;2022-11-15T18:18:01;11.98;;;8.02;;
38190;SDS011;25191;47.510;19.124;2022-11-15T18:28:01;15.32;;;9.27;;
38190;SDS011;25191;47.510;19.124;2022-11-15T18:38:02;13.80;;;8.48;;
38190;SDS011;25191;47.510;19.124;2022-11-15T18:48:02;16.80;;;9.07;;
38190;SDS011;25191;47.510;19.124;2022-11-15T18:58:03;20.42;;;9.45;;
38190;SDS011;25191;47.510;19.124;2022-11-15T19:08:03;22.67;;;8.95;;
38190;SDS011;25191;47.510;19.124;2022-11-15T19:18:03;17.92;;;8.52;;
38190;SDS011;25191;47.510;19.124;2022-11-15T19:28:04;15.35;;;9.05;;
38190;SDS011;25191;47.510;19.124;2022-11-15T19:38:05;15.82;;;9.00;;
38190;SDS011;25191;47.510;19.124;2022-11-15T19:48:06;15.25;;;8.85;;
38190;SDS011;25191;47.510;19.124;2022-11-15T19:58:06;14.95;;;9.57;;
38190;SDS011;25191;47.510;19.124;2022-11-15T20:08:06;12.85;;;8.65;;
38190;SDS011;25191;47.510;19.124;2022-11-15T20:18:07;26.73;;;9.20;;
38190;SDS011;25191;47.510;19.124;2022-11-15T20:28:08;19.13;;;10.07;;
38190;SDS011;25191;47.510;19.124;2022-11-15T20:38:12;18.27;;;10.73;;
38190;SDS011;25191;47.510;19.124;2022-11-15T20:48:12;20.27;;;10.05;;
38190;SDS011;25191;47.510;19.124;2022-11-15T20:58:13;15.40;;;10.07;;
38190;SDS011;25191;47.510;19.124;2022-11-15T21:08:15;14.55;;;9.07;;
38190;SDS011;25191;47.510;19.124;2022-11-15T21:18:16;13.23;;;9.35;;
38190;SDS011;25191;47.510;19.124;2022-11-15T21:28:16;16.10;;;10.10;;
38190;SDS011;25191;47.510;19.124;2022-11-15T21:38:17;13.70;;;9.43;;
38190;SDS011;25191;47.510;19.124;2022-11-15T21:48:17;15.10;;;9.02;;
38190;SDS011;25191;47.510;19.124;2022-11-15T21:58:18;15.77;;;10.10;;
38190;SDS011;25191;47.510;19.124;2022-11-15T22:08:19;14.52;;;9.93;;
38190;SDS011;25191;47.510;19.124;2022-11-15T22:18:23;14.00;;;9.63;;
38190;SDS011;25191;47.510;19.124;2022-11-15T22:28:24;13.23;;;9.10;;
38190;SDS011;25191;47.510;19.124;2022-11-15T22:38:25;12.63;;;8.80;;
38190;SDS011;25191;47.510;19.124;2022-11-15T22:48:27;14.25;;;9.27;;
38190;SDS011;25191;47.510;19.124;2022-11-15T22:58:30;12.88;;;8.88;;
38190;SDS011;25191;47.510;19.124;2022-11-15T23:08:31;12.77;;;8.82;;
38190;SDS011;25191;47.510;19.124;2022-11-15T23:18:33;12.25;;;8.90;;
38190;SDS011;25191;47.510;19.124;2022-11-15T23:28:34;12.93;;;8.70;;
38190;SDS011;25191;47.510;19.124;2022-11-15T23:38:36;10.65;;;7.68;;
38190;SDS011;25191;47.510;19.124;2022-11-15T23:48:36;12.73;;;8.90;;
38190;SDS011;25191;47.510;19.124;2022-11-15T23:58:36;12.20;;;8.63;;
